createdAt,value
2022-11-11T00:00:08.989Z,0
2022-11-11T00:01:08.999Z,0
2022-11-11T00:02:08.989Z,0
2022-11-11T00:03:09.021Z,0
2022-11-11T00:04:08.977Z,0
2022-11-11T00:05:08.990Z,0
2022-11-11T00:06:09.023Z,0
2022-11-11T00:07:09.179Z,0
2022-11-11T00:08:08.963Z,0
2022-11-11T00:09:09.001Z,0
2022-11-11T00:10:08.976Z,0
2022-11-11T00:11:08.980Z,0
2022-11-11T00:12:08.980Z,0
2022-11-11T00:13:08.974Z,0
2022-11-11T00:14:08.981Z,0
2022-11-11T00:15:09.009Z,0
2022-11-11T00:16:09.000Z,1.4
2022-11-11T00:17:08.971Z,0.9
2022-11-11T00:18:08.980Z,0.8
2022-11-11T00:19:08.986Z,0
2022-11-11T00:20:08.983Z,0.9
2022-11-11T00:21:08.976Z,0
2022-11-11T00:22:08.976Z,0.6
2022-11-11T00:23:09.115Z,0
2022-11-11T00:24:09.010Z,1.5
2022-11-11T00:25:09.015Z,0.8
2022-11-11T00:26:33.075Z,0
2022-11-11T00:27:09.121Z,0
2022-11-11T00:28:08.991Z,0
2022-11-11T00:29:08.990Z,0
2022-11-11T00:30:08.990Z,0
2022-11-11T00:31:09.005Z,0
2022-11-11T00:32:09.058Z,0
2022-11-11T00:33:08.987Z,0
2022-11-11T00:34:09.094Z,0
2022-11-11T00:35:08.993Z,0
2022-11-11T00:36:09.029Z,0
2022-11-11T00:37:09.048Z,0
2022-11-11T00:38:09.006Z,0
2022-11-11T00:39:09.144Z,0
2022-11-11T00:40:08.983Z,0
2022-11-11T00:41:09.034Z,0
2022-11-11T00:42:08.985Z,0
2022-11-11T00:43:09.027Z,0
2022-11-11T00:44:09.018Z,0
2022-11-11T00:45:09.035Z,0
2022-11-11T00:46:09.041Z,1
2022-11-11T00:47:08.992Z,0
2022-11-11T00:48:08.993Z,0
2022-11-11T00:49:08.988Z,0
2022-11-11T00:50:09.011Z,0
2022-11-11T00:51:09.002Z,0
2022-11-11T00:52:08.992Z,0
2022-11-11T00:53:09.031Z,0
2022-11-11T00:54:08.987Z,0
2022-11-11T00:55:09.149Z,0
2022-11-11T00:56:09.133Z,0
2022-11-11T00:57:09.040Z,0
2022-11-11T00:58:09.173Z,0
2022-11-11T00:59:09.069Z,0
2022-11-11T01:00:09.079Z,0
2022-11-11T01:01:09.085Z,0
2022-11-11T01:02:09.107Z,0
2022-11-11T01:03:09.043Z,0
2022-11-11T01:04:09.084Z,0.5
2022-11-11T01:05:09.025Z,0
2022-11-11T01:06:09.080Z,0.7
2022-11-11T01:07:09.074Z,0
2022-11-11T01:08:09.067Z,0.5
2022-11-11T01:09:09.127Z,1
2022-11-11T01:10:09.018Z,0.8
2022-11-11T01:11:09.160Z,0
2022-11-11T01:12:09.159Z,0
2022-11-11T01:13:09.082Z,0
2022-11-11T01:14:09.151Z,0
2022-11-11T01:15:09.089Z,0
2022-11-11T01:16:09.115Z,0
2022-11-11T01:17:09.025Z,0
2022-11-11T01:18:09.013Z,0
2022-11-11T01:19:09.163Z,0
2022-11-11T01:20:09.010Z,0
2022-11-11T01:21:09.048Z,0
2022-11-11T01:22:09.082Z,0
2022-11-11T01:23:09.156Z,0
2022-11-11T01:24:09.189Z,0
2022-11-11T01:25:09.079Z,0
2022-11-11T01:26:09.142Z,0
2022-11-11T01:27:09.244Z,0
2022-11-11T01:28:09.218Z,0
2022-11-11T01:29:09.080Z,0
2022-11-11T01:30:09.124Z,0
2022-11-11T01:31:09.128Z,0
2022-11-11T01:32:09.039Z,0
2022-11-11T01:33:09.158Z,0
2022-11-11T01:34:09.143Z,0
2022-11-11T01:35:09.120Z,0
2022-11-11T01:36:09.190Z,0
2022-11-11T01:37:09.033Z,0
2022-11-11T01:38:09.101Z,0
2022-11-11T01:39:09.136Z,0
2022-11-11T01:40:09.019Z,0
2022-11-11T01:41:09.128Z,0
2022-11-11T01:42:09.162Z,0
2022-11-11T01:43:09.202Z,0
2022-11-11T01:44:09.093Z,0
2022-11-11T01:45:09.031Z,0
2022-11-11T01:46:09.090Z,0
2022-11-11T01:47:09.050Z,0
2022-11-11T01:48:23.281Z,0
2022-11-11T01:49:09.028Z,0.6
2022-11-11T01:50:09.188Z,0.8
2022-11-11T01:51:09.160Z,0.8
2022-11-11T01:52:09.174Z,0.6
2022-11-11T01:53:09.195Z,0
2022-11-11T01:54:09.185Z,0
2022-11-11T01:55:09.173Z,0
2022-11-11T01:56:09.081Z,0
2022-11-11T01:57:09.034Z,0
2022-11-11T01:58:09.103Z,0.5
2022-11-11T01:59:09.286Z,0.6
2022-11-11T02:00:09.078Z,0.6
2022-11-11T02:01:09.065Z,0
2022-11-11T02:02:09.295Z,0
2022-11-11T02:03:09.174Z,0
2022-11-11T02:04:09.106Z,0
2022-11-11T02:05:09.247Z,0
2022-11-11T02:06:09.230Z,0
2022-11-11T02:07:09.113Z,0
2022-11-11T02:08:09.247Z,0
2022-11-11T02:09:09.198Z,0
2022-11-11T02:10:09.050Z,0
2022-11-11T02:11:09.147Z,0
2022-11-11T02:12:09.087Z,0
2022-11-11T02:13:09.068Z,0
2022-11-11T02:14:09.100Z,0
2022-11-11T02:15:09.228Z,0
2022-11-11T02:16:09.192Z,0
2022-11-11T02:17:09.157Z,0
2022-11-11T02:18:09.153Z,0
2022-11-11T02:19:09.085Z,0
2022-11-11T02:20:09.244Z,0
2022-11-11T02:21:09.070Z,0
2022-11-11T02:22:09.212Z,0
2022-11-11T02:23:09.202Z,0
2022-11-11T02:24:09.252Z,0
2022-11-11T02:25:09.204Z,0
2022-11-11T02:26:09.060Z,0
2022-11-11T02:27:09.114Z,0
2022-11-11T02:28:09.108Z,0
2022-11-11T02:29:09.085Z,0
2022-11-11T02:30:09.253Z,0
2022-11-11T02:31:09.230Z,0
2022-11-11T02:32:09.145Z,0.5
2022-11-11T02:33:09.292Z,0
2022-11-11T02:34:09.060Z,0
2022-11-11T02:35:09.057Z,0
2022-11-11T02:36:09.284Z,0
2022-11-11T02:37:09.126Z,0
2022-11-11T02:38:09.219Z,0
2022-11-11T02:39:09.063Z,0.6
2022-11-11T02:40:09.160Z,0
2022-11-11T02:41:09.253Z,0
2022-11-11T02:42:09.105Z,0
2022-11-11T02:43:09.116Z,0
2022-11-11T02:44:09.159Z,0.5
2022-11-11T02:45:09.141Z,0
2022-11-11T02:46:09.235Z,0
2022-11-11T02:47:09.208Z,0
2022-11-11T02:48:09.294Z,0
2022-11-11T02:49:09.073Z,0
2022-11-11T02:50:09.287Z,0
2022-11-11T02:51:09.257Z,0
2022-11-11T02:52:09.159Z,0
2022-11-11T02:53:09.115Z,0
2022-11-11T02:54:09.221Z,0
2022-11-11T02:55:09.173Z,0
2022-11-11T02:56:09.184Z,0
2022-11-11T02:57:09.397Z,0
2022-11-11T02:58:09.143Z,0
2022-11-11T02:59:09.119Z,0
2022-11-11T03:00:09.130Z,0
2022-11-11T03:01:09.193Z,0
2022-11-11T03:02:09.200Z,0
2022-11-11T03:03:09.276Z,0
2022-11-11T03:04:09.209Z,0
2022-11-11T03:05:09.106Z,0
2022-11-11T03:06:09.078Z,0
2022-11-11T03:07:09.165Z,0
2022-11-11T03:08:09.240Z,0
2022-11-11T03:09:09.062Z,0
2022-11-11T03:10:09.150Z,0
2022-11-11T03:11:09.109Z,0
2022-11-11T03:12:09.296Z,0
2022-11-11T03:13:09.212Z,0
2022-11-11T03:14:09.346Z,0
2022-11-11T03:15:09.065Z,0
2022-11-11T03:16:09.145Z,0
2022-11-11T03:17:09.130Z,0
2022-11-11T03:18:09.083Z,0
2022-11-11T03:19:09.390Z,0
2022-11-11T03:20:09.224Z,0
2022-11-11T03:21:55.644Z,0
2022-11-11T03:23:09.097Z,0
2022-11-11T03:24:09.082Z,0
2022-11-11T03:25:09.078Z,0
2022-11-11T03:26:09.085Z,0
2022-11-11T03:27:09.073Z,0
2022-11-11T03:28:09.091Z,0
2022-11-11T03:29:09.082Z,0
2022-11-11T03:30:09.088Z,0
2022-11-11T03:31:09.085Z,0.6
2022-11-11T03:32:09.108Z,0.5
2022-11-11T03:33:09.083Z,0.5
2022-11-11T03:34:09.098Z,0.8
2022-11-11T03:35:09.205Z,0
2022-11-11T03:36:09.103Z,0.7
2022-11-11T03:37:09.111Z,0
2022-11-11T03:38:09.081Z,0.5
2022-11-11T03:39:09.123Z,0
2022-11-11T03:40:09.097Z,0
2022-11-11T03:41:09.094Z,0.8
2022-11-11T03:42:09.079Z,0.5
2022-11-11T03:43:09.101Z,0
2022-11-11T03:44:09.104Z,0
2022-11-11T03:45:09.095Z,0
2022-11-11T03:46:09.107Z,0
2022-11-11T03:47:09.244Z,0
2022-11-11T03:48:09.082Z,0
2022-11-11T03:49:09.099Z,0
2022-11-11T03:50:09.187Z,0
2022-11-11T03:51:09.299Z,0
2022-11-11T03:52:09.101Z,0
2022-11-11T03:53:09.083Z,0
2022-11-11T03:54:09.090Z,0
2022-11-11T03:55:09.092Z,0
2022-11-11T03:56:09.106Z,0
2022-11-11T03:57:09.093Z,0
2022-11-11T03:58:09.094Z,0
2022-11-11T03:59:09.116Z,0
2022-11-11T04:00:14.052Z,0
2022-11-11T04:01:09.107Z,0
2022-11-11T04:02:09.163Z,0
2022-11-11T04:03:09.107Z,0
2022-11-11T04:04:09.106Z,0
2022-11-11T04:05:09.112Z,0
2022-11-11T04:06:09.106Z,0
2022-11-11T04:07:09.278Z,0
2022-11-11T04:08:09.097Z,0
2022-11-11T04:09:09.103Z,0
2022-11-11T04:10:09.112Z,0
2022-11-11T04:11:09.116Z,0
2022-11-11T04:12:09.107Z,0
2022-11-11T04:13:09.105Z,0
2022-11-11T04:14:09.095Z,0.6
2022-11-11T04:15:09.098Z,0
2022-11-11T04:16:09.128Z,0
2022-11-11T04:17:09.108Z,0
2022-11-11T04:18:09.118Z,0
2022-11-11T04:19:09.098Z,0
2022-11-11T04:20:09.111Z,0
2022-11-11T04:21:09.107Z,0
2022-11-11T04:22:09.269Z,0
2022-11-11T04:23:09.241Z,0
2022-11-11T04:24:09.113Z,0
2022-11-11T04:25:09.133Z,0
2022-11-11T04:26:09.124Z,0
2022-11-11T04:27:09.140Z,0
2022-11-11T04:28:09.113Z,0
2022-11-11T04:29:09.131Z,0
2022-11-11T04:30:09.115Z,0
2022-11-11T04:31:09.129Z,0
2022-11-11T04:32:09.108Z,0.5
2022-11-11T04:33:09.133Z,0
2022-11-11T04:34:09.133Z,0
2022-11-11T04:35:09.113Z,0
2022-11-11T04:36:09.132Z,0.5
2022-11-11T04:37:09.134Z,0
2022-11-11T04:38:09.123Z,0
2022-11-11T04:39:09.241Z,0
2022-11-11T04:40:09.152Z,0
2022-11-11T04:41:09.130Z,0
2022-11-11T04:42:09.316Z,0
2022-11-11T04:43:09.139Z,0
2022-11-11T04:44:09.117Z,0
2022-11-11T04:45:09.128Z,0
2022-11-11T04:46:09.128Z,0
2022-11-11T04:47:09.113Z,0
2022-11-11T04:48:09.130Z,0
2022-11-11T04:49:09.133Z,0
2022-11-11T04:50:09.117Z,0
2022-11-11T04:51:09.407Z,0
2022-11-11T04:52:09.145Z,0
2022-11-11T04:53:09.132Z,0
2022-11-11T04:54:09.127Z,0.6
2022-11-11T04:55:09.267Z,0
2022-11-11T04:56:09.151Z,0
2022-11-11T04:57:09.115Z,0
2022-11-11T04:58:09.155Z,0
2022-11-11T04:59:09.134Z,0.5
2022-11-11T05:00:09.130Z,0
2022-11-11T05:01:09.181Z,0
2022-11-11T05:02:09.129Z,0
2022-11-11T05:03:09.121Z,0
2022-11-11T05:04:09.145Z,0
2022-11-11T05:05:09.132Z,0
2022-11-11T05:06:09.135Z,0
2022-11-11T05:07:09.148Z,0
2022-11-11T05:08:09.149Z,0
2022-11-11T05:09:09.119Z,0
2022-11-11T05:10:09.132Z,0
2022-11-11T05:11:09.270Z,0
2022-11-11T05:12:09.126Z,0
2022-11-11T05:13:09.149Z,0
2022-11-11T05:14:09.133Z,0
2022-11-11T05:15:09.145Z,0
2022-11-11T05:16:09.136Z,0
2022-11-11T05:17:09.153Z,0
2022-11-11T05:18:09.125Z,0
2022-11-11T05:19:09.147Z,0
2022-11-11T05:20:09.126Z,0
2022-11-11T05:21:09.154Z,0
2022-11-11T05:22:09.149Z,0
2022-11-11T05:23:09.137Z,0
2022-11-11T05:24:09.131Z,0
2022-11-11T05:25:09.125Z,0
2022-11-11T05:26:09.150Z,0
2022-11-11T05:27:09.239Z,0
2022-11-11T05:28:09.147Z,0
2022-11-11T05:29:09.161Z,0
2022-11-11T05:30:09.144Z,0
2022-11-11T05:31:09.147Z,0
2022-11-11T05:32:09.153Z,0
2022-11-11T05:33:09.144Z,0
2022-11-11T05:34:09.171Z,0
2022-11-11T05:35:09.265Z,0
2022-11-11T05:36:09.146Z,0
2022-11-11T05:37:09.134Z,0
2022-11-11T05:38:09.138Z,0
2022-11-11T05:39:09.164Z,0
2022-11-11T05:40:09.154Z,0
2022-11-11T05:41:09.155Z,0
2022-11-11T05:42:09.147Z,0
2022-11-11T05:43:09.270Z,0.5
2022-11-11T05:44:09.144Z,0
2022-11-11T05:45:09.147Z,0
2022-11-11T05:46:09.138Z,0
2022-11-11T05:47:09.136Z,0
2022-11-11T05:48:09.184Z,0
2022-11-11T05:49:09.146Z,0
2022-11-11T05:50:09.138Z,0
2022-11-11T05:51:09.166Z,0.5
2022-11-11T05:52:09.164Z,0
2022-11-11T05:53:09.151Z,0.6
2022-11-11T05:54:09.138Z,0
2022-11-11T05:55:09.137Z,0
2022-11-11T05:56:09.156Z,0
2022-11-11T05:57:09.142Z,0
2022-11-11T05:58:09.144Z,0
2022-11-11T05:59:09.287Z,0
2022-11-11T06:00:09.150Z,0
2022-11-11T06:01:09.153Z,0
2022-11-11T06:02:09.266Z,0
2022-11-11T06:03:09.141Z,0
2022-11-11T06:04:12.543Z,0
2022-11-11T06:05:09.144Z,0
2022-11-11T06:06:09.163Z,0
2022-11-11T06:07:09.194Z,0
2022-11-11T06:08:09.174Z,0
2022-11-11T06:09:09.153Z,0
2022-11-11T06:10:09.175Z,0
2022-11-11T06:11:09.156Z,0
2022-11-11T06:12:09.180Z,0
2022-11-11T06:13:09.185Z,0
2022-11-11T06:14:09.156Z,0
2022-11-11T06:15:09.284Z,0
2022-11-11T06:16:09.153Z,0
2022-11-11T06:17:09.166Z,0
2022-11-11T06:18:09.156Z,0
2022-11-11T06:19:09.146Z,0
2022-11-11T06:20:09.149Z,0
2022-11-11T06:21:09.186Z,0
2022-11-11T06:22:09.178Z,0
2022-11-11T06:23:09.152Z,0
2022-11-11T06:24:09.162Z,0.5
2022-11-11T06:25:09.149Z,0.5
2022-11-11T06:26:09.170Z,0
2022-11-11T06:27:09.159Z,0.5
2022-11-11T06:28:09.144Z,0.5
2022-11-11T06:29:09.148Z,0.6
2022-11-11T06:30:37.059Z,0
2022-11-11T06:31:09.292Z,0
2022-11-11T06:32:09.174Z,0.6
2022-11-11T06:33:09.246Z,0
2022-11-11T06:34:09.190Z,0.5
2022-11-11T06:35:09.160Z,1.1
2022-11-11T06:36:09.158Z,0
2022-11-11T06:37:09.169Z,0
2022-11-11T06:38:09.151Z,0
2022-11-11T06:39:09.204Z,0
2022-11-11T06:40:09.164Z,0
2022-11-11T06:41:09.171Z,0
2022-11-11T06:42:09.158Z,0
2022-11-11T06:43:09.151Z,0
2022-11-11T06:44:09.157Z,0
2022-11-11T06:45:09.171Z,0
2022-11-11T06:46:09.163Z,0.5
2022-11-11T06:47:09.297Z,0
2022-11-11T06:48:09.166Z,0
2022-11-11T06:49:09.163Z,0
2022-11-11T06:50:09.203Z,0.5
2022-11-11T06:51:09.185Z,0
2022-11-11T06:52:09.195Z,0
2022-11-11T06:53:09.158Z,0
2022-11-11T06:54:09.202Z,0
2022-11-11T06:55:09.169Z,0
2022-11-11T06:56:09.194Z,0
2022-11-11T06:57:09.186Z,0
2022-11-11T06:58:09.167Z,0
2022-11-11T06:59:09.155Z,0
2022-11-11T07:00:09.177Z,0
2022-11-11T07:01:09.247Z,0
2022-11-11T07:02:09.188Z,0
2022-11-11T07:03:09.279Z,0
2022-11-11T07:04:09.172Z,0
2022-11-11T07:05:09.169Z,0
2022-11-11T07:06:09.175Z,0
2022-11-11T07:07:09.232Z,0
2022-11-11T07:08:09.165Z,0
2022-11-11T07:09:09.171Z,0
2022-11-11T07:10:09.196Z,0
2022-11-11T07:11:14.167Z,0
2022-11-11T07:12:09.180Z,0
2022-11-11T07:13:09.178Z,0
2022-11-11T07:14:09.168Z,0
2022-11-11T07:15:09.170Z,0
2022-11-11T07:16:09.186Z,0
2022-11-11T07:17:09.179Z,0
2022-11-11T07:18:09.229Z,0
2022-11-11T07:19:09.348Z,0
2022-11-11T07:20:09.181Z,0
2022-11-11T07:21:09.201Z,0
2022-11-11T07:22:09.180Z,0
2022-11-11T07:23:09.185Z,0
2022-11-11T07:24:09.184Z,0
2022-11-11T07:25:09.198Z,0
2022-11-11T07:26:09.179Z,0
2022-11-11T07:27:09.191Z,0
2022-11-11T07:28:09.193Z,0
2022-11-11T07:29:09.186Z,0
2022-11-11T07:30:09.205Z,0
2022-11-11T07:31:09.190Z,0
2022-11-11T07:32:09.408Z,0
2022-11-11T07:33:09.186Z,0
2022-11-11T07:34:09.185Z,0
2022-11-11T07:35:09.312Z,0
2022-11-11T07:36:09.228Z,0
2022-11-11T07:37:09.204Z,0
2022-11-11T07:38:09.187Z,0
2022-11-11T07:39:09.185Z,0
2022-11-11T07:40:09.196Z,0
2022-11-11T07:41:09.227Z,0
2022-11-11T07:42:21.676Z,0
2022-11-11T07:43:09.205Z,0
2022-11-11T07:44:09.198Z,0
2022-11-11T07:45:09.200Z,0
2022-11-11T07:46:09.225Z,0
2022-11-11T07:47:09.200Z,0
2022-11-11T07:48:09.221Z,0
2022-11-11T07:49:09.207Z,0
2022-11-11T07:50:09.208Z,0
2022-11-11T07:51:09.340Z,0
2022-11-11T07:52:09.207Z,0
2022-11-11T07:53:09.201Z,0
2022-11-11T07:54:09.212Z,0
2022-11-11T07:55:09.209Z,0
2022-11-11T07:56:09.209Z,0
2022-11-11T07:57:09.209Z,0
2022-11-11T07:58:09.211Z,0
2022-11-11T07:59:09.200Z,0
2022-11-11T08:00:09.221Z,0
2022-11-11T08:01:09.438Z,0
2022-11-11T08:02:09.203Z,0
2022-11-11T08:03:09.272Z,0
2022-11-11T08:04:09.221Z,0
2022-11-11T08:05:09.215Z,0
2022-11-11T08:06:09.222Z,0
2022-11-11T08:07:09.389Z,0.5
2022-11-11T08:08:09.201Z,0
2022-11-11T08:09:09.208Z,0.5
2022-11-11T08:10:09.215Z,0
2022-11-11T08:11:09.205Z,0
2022-11-11T08:12:09.230Z,1.1
2022-11-11T08:13:09.228Z,0.8
2022-11-11T08:14:09.230Z,0
2022-11-11T08:15:09.244Z,0
2022-11-11T08:16:09.224Z,0
2022-11-11T08:17:09.202Z,0
2022-11-11T08:18:09.214Z,0
2022-11-11T08:19:09.212Z,0
2022-11-11T08:20:09.215Z,0
2022-11-11T08:21:09.419Z,0
2022-11-11T08:22:09.218Z,0
2022-11-11T08:25:01.443Z,0
2022-11-11T08:25:09.718Z,0
2022-11-11T08:26:09.222Z,0
2022-11-11T08:27:09.216Z,0
2022-11-11T08:28:09.239Z,0
2022-11-11T08:29:09.230Z,0
2022-11-11T08:30:09.228Z,0
2022-11-11T08:31:09.438Z,0
2022-11-11T08:32:09.230Z,0
2022-11-11T08:33:32.168Z,0
2022-11-11T08:34:09.229Z,0
2022-11-11T08:35:09.237Z,0
2022-11-11T08:36:09.226Z,0
2022-11-11T08:37:09.225Z,0
2022-11-11T08:38:09.227Z,0
2022-11-11T08:39:09.344Z,0
2022-11-11T08:40:09.221Z,0
2022-11-11T08:41:09.225Z,0
2022-11-11T08:42:09.235Z,0
2022-11-11T08:43:09.238Z,0
2022-11-11T08:44:09.266Z,0
2022-11-11T08:45:09.256Z,0
2022-11-11T08:46:09.293Z,0
2022-11-11T08:47:09.235Z,0
2022-11-11T08:48:09.240Z,0
2022-11-11T08:49:09.224Z,0
2022-11-11T08:50:09.252Z,0
2022-11-11T08:51:09.252Z,0
2022-11-11T08:52:09.230Z,0
2022-11-11T08:53:09.273Z,0
2022-11-11T08:54:09.232Z,0
2022-11-11T08:55:09.374Z,0
2022-11-11T08:56:09.230Z,0
2022-11-11T08:57:09.237Z,0
2022-11-11T08:58:09.223Z,0
2022-11-11T08:59:09.240Z,0
2022-11-11T09:00:09.260Z,0
2022-11-11T09:01:09.308Z,0
2022-11-11T09:02:09.258Z,0
2022-11-11T09:03:09.233Z,0
2022-11-11T09:04:38.039Z,0
2022-11-11T09:05:09.256Z,0
2022-11-11T09:06:09.244Z,0
2022-11-11T09:07:09.345Z,0
2022-11-11T09:08:09.236Z,0
2022-11-11T09:09:09.255Z,0
2022-11-11T09:10:09.268Z,0
2022-11-11T09:11:09.368Z,0
2022-11-11T09:12:09.241Z,0.6
2022-11-11T09:13:09.240Z,0
2022-11-11T09:14:09.237Z,1
2022-11-11T09:15:09.264Z,0.7
2022-11-11T09:16:09.247Z,0.9
2022-11-11T09:17:09.253Z,0.6
2022-11-11T09:18:09.285Z,0.8
2022-11-11T09:19:09.233Z,0
2022-11-11T09:20:09.266Z,0.6
2022-11-11T09:21:09.248Z,0.5
2022-11-11T09:22:09.239Z,0.5
2022-11-11T09:23:09.245Z,0.8
2022-11-11T09:24:09.270Z,0
2022-11-11T09:25:09.303Z,0.6
2022-11-11T09:26:09.261Z,0.5
2022-11-11T09:27:09.352Z,0.5
2022-11-11T09:28:09.465Z,0.8
2022-11-11T09:29:09.256Z,1.2
2022-11-11T09:30:09.376Z,0.8
2022-11-11T09:31:37.967Z,0.7
2022-11-11T09:32:09.242Z,1.2
2022-11-11T09:33:09.301Z,1.2
2022-11-11T09:34:09.250Z,0.8
2022-11-11T09:35:09.329Z,1.2
2022-11-11T09:36:09.252Z,0.6
2022-11-11T09:37:09.263Z,0.8
2022-11-11T09:38:09.275Z,1.2
2022-11-11T09:39:09.252Z,0.9
2022-11-11T09:40:09.266Z,0.8
2022-11-11T09:41:09.263Z,0.6
2022-11-11T09:42:09.257Z,1.1
2022-11-11T09:43:09.395Z,1.1
2022-11-11T09:44:09.293Z,0.9
2022-11-11T09:45:09.281Z,0.6
2022-11-11T09:46:09.288Z,0.8
2022-11-11T09:47:09.251Z,1.2
2022-11-11T09:48:10.493Z,0.5
2022-11-11T09:49:09.250Z,0
2022-11-11T09:50:09.284Z,0.8
2022-11-11T09:51:09.260Z,0
2022-11-11T09:52:09.273Z,0.6
2022-11-11T09:53:09.274Z,0
2022-11-11T09:54:09.276Z,0
2022-11-11T09:55:09.275Z,0.7
2022-11-11T09:56:23.314Z,0.5
2022-11-11T09:57:09.260Z,0.8
2022-11-11T09:58:09.270Z,0.5
2022-11-11T09:59:09.380Z,1.2
2022-11-11T10:00:09.297Z,0.5
2022-11-11T10:01:09.323Z,0.7
2022-11-11T10:02:09.263Z,1.2
2022-11-11T10:03:09.268Z,0.9
2022-11-11T10:04:09.263Z,0.8
2022-11-11T10:05:09.274Z,0.6
2022-11-11T10:06:09.273Z,0
2022-11-11T10:07:09.311Z,0.8
2022-11-11T10:08:09.299Z,0.8
2022-11-11T10:09:09.285Z,0.9
2022-11-11T10:10:09.281Z,0.5
2022-11-11T10:11:09.278Z,0.7
2022-11-11T10:12:09.287Z,0.8
2022-11-11T10:13:09.279Z,0
2022-11-11T10:14:09.295Z,0.6
2022-11-11T10:15:09.422Z,0.5
2022-11-11T10:16:09.271Z,0.5
2022-11-11T10:17:09.288Z,0
2022-11-11T10:18:12.096Z,1.2
2022-11-11T10:19:09.273Z,0
2022-11-11T10:20:09.300Z,0
2022-11-11T10:21:09.295Z,0.5
2022-11-11T10:22:13.491Z,0
2022-11-11T10:23:09.287Z,0
2022-11-11T10:24:09.280Z,0
2022-11-11T10:25:09.303Z,0
2022-11-11T10:26:09.284Z,0
2022-11-11T10:27:09.286Z,0
2022-11-11T10:28:09.286Z,0
2022-11-11T10:29:09.491Z,0
2022-11-11T10:30:09.304Z,0
2022-11-11T10:31:09.402Z,0
2022-11-11T10:32:09.282Z,0
2022-11-11T10:33:09.285Z,0
2022-11-11T10:34:09.289Z,0
2022-11-11T10:35:09.313Z,0
2022-11-11T10:36:09.280Z,0
2022-11-11T10:37:09.305Z,0
2022-11-11T10:38:09.290Z,0
2022-11-11T10:39:09.289Z,0
2022-11-11T10:40:09.329Z,0
2022-11-11T10:41:09.293Z,0
2022-11-11T10:42:09.294Z,0
2022-11-11T10:43:09.292Z,0
2022-11-11T10:44:09.296Z,0.6
2022-11-11T10:45:09.330Z,0
2022-11-11T10:46:09.355Z,0.5
2022-11-11T10:47:09.410Z,0.5
2022-11-11T10:48:09.285Z,0
2022-11-11T10:49:09.331Z,0
2022-11-11T10:50:09.306Z,0
2022-11-11T10:51:09.289Z,0.6
2022-11-11T10:52:09.312Z,1
2022-11-11T10:53:09.287Z,0.5
2022-11-11T10:54:09.291Z,0
2022-11-11T10:55:09.297Z,0
2022-11-11T10:56:09.316Z,0.5
2022-11-11T10:57:09.315Z,0
2022-11-11T10:58:09.308Z,0
2022-11-11T10:59:09.287Z,0
2022-11-11T11:00:09.319Z,0
2022-11-11T11:01:09.357Z,0
2022-11-11T11:02:09.297Z,0
2022-11-11T11:03:09.417Z,0
2022-11-11T11:04:09.324Z,0
2022-11-11T11:05:09.341Z,0
2022-11-11T11:06:09.330Z,0
2022-11-11T11:07:09.365Z,0
2022-11-11T11:08:09.302Z,0
2022-11-11T11:09:09.301Z,0
2022-11-11T11:10:09.339Z,0
2022-11-11T11:11:09.297Z,0
2022-11-11T11:12:09.307Z,0
2022-11-11T11:13:09.303Z,0.7
2022-11-11T11:14:09.330Z,0.6
2022-11-11T11:15:09.342Z,0
2022-11-11T11:16:09.353Z,0.5
2022-11-11T11:17:09.329Z,0
2022-11-11T11:18:09.307Z,0.5
2022-11-11T11:19:09.454Z,0
2022-11-11T11:20:09.335Z,0
2022-11-11T11:21:09.307Z,0
2022-11-11T11:22:09.318Z,0
2022-11-11T11:23:09.301Z,0
2022-11-11T11:24:09.307Z,0.7
2022-11-11T11:25:09.336Z,0
2022-11-11T11:26:09.321Z,0.8
2022-11-11T11:27:09.323Z,0.5
2022-11-11T11:28:09.461Z,0.7
2022-11-11T11:29:09.328Z,0.6
2022-11-11T11:30:12.234Z,0.7
2022-11-11T11:31:09.316Z,0
2022-11-11T11:32:09.318Z,0
2022-11-11T11:33:09.328Z,0
2022-11-11T11:34:09.318Z,0
2022-11-11T11:35:09.462Z,0
2022-11-11T11:36:09.327Z,0.5
2022-11-11T11:37:09.332Z,0
2022-11-11T11:38:09.320Z,0
2022-11-11T11:39:09.334Z,0
2022-11-11T11:40:09.358Z,0
2022-11-11T11:41:09.344Z,0
2022-11-11T11:42:09.320Z,0
2022-11-11T11:43:09.331Z,0.6
2022-11-11T11:44:09.337Z,0.8
2022-11-11T11:45:09.350Z,0
2022-11-11T11:46:09.336Z,0.6
2022-11-11T11:47:09.319Z,0.8
2022-11-11T11:48:30.284Z,0
2022-11-11T11:49:09.330Z,0.7
2022-11-11T11:50:09.336Z,0
2022-11-11T11:51:09.471Z,0
2022-11-11T11:52:09.333Z,0
2022-11-11T11:53:09.326Z,0.5
2022-11-11T11:54:09.325Z,0
2022-11-11T11:55:09.349Z,0.7
2022-11-11T11:56:09.334Z,1
2022-11-11T11:57:09.351Z,0.7
2022-11-11T11:58:09.332Z,0.8
2022-11-11T11:59:09.359Z,0.8
2022-11-11T12:00:09.357Z,0.6
2022-11-11T12:01:09.350Z,0.7
2022-11-11T12:02:09.393Z,0
2022-11-11T12:03:09.347Z,0.5
2022-11-11T12:04:09.331Z,0.7
2022-11-11T12:05:09.340Z,0.5
2022-11-11T12:06:09.356Z,0.8
2022-11-11T12:07:09.738Z,1.2
2022-11-11T12:08:09.357Z,0.7
2022-11-11T12:09:09.370Z,0.6
2022-11-11T12:10:09.349Z,0
2022-11-11T12:11:09.351Z,0.7
2022-11-11T12:12:09.340Z,1
2022-11-11T12:13:09.352Z,0.8
2022-11-11T12:14:09.355Z,1.2
2022-11-11T12:15:09.368Z,1.2
2022-11-11T12:16:09.381Z,0.7
2022-11-11T12:17:09.349Z,1.2
2022-11-11T12:18:09.353Z,1.2
2022-11-11T12:19:09.343Z,1.2
2022-11-11T12:20:09.367Z,0.8
2022-11-11T12:21:09.343Z,1.2
2022-11-11T12:22:09.343Z,1
2022-11-11T12:23:09.474Z,0.7
2022-11-11T12:24:09.374Z,0.6
2022-11-11T12:25:09.366Z,0.7
2022-11-11T12:26:09.370Z,0.8
2022-11-11T12:27:09.352Z,0.7
2022-11-11T12:28:09.349Z,0
2022-11-11T12:29:09.346Z,0.7
2022-11-11T12:30:09.503Z,1
2022-11-11T12:31:09.352Z,0.9
2022-11-11T12:32:09.352Z,0.5
2022-11-11T12:33:09.342Z,1.2
2022-11-11T12:34:09.353Z,0.5
2022-11-11T12:35:09.357Z,0.5
2022-11-11T12:36:09.353Z,0
2022-11-11T12:37:09.375Z,0.7
2022-11-11T12:38:09.357Z,0.6
2022-11-11T12:39:09.484Z,0.7
2022-11-11T12:40:09.369Z,0.8
2022-11-11T12:41:09.367Z,1.2
2022-11-11T12:42:09.341Z,1.1
2022-11-11T12:43:09.357Z,0.7
2022-11-11T12:44:09.360Z,0.8
2022-11-11T12:45:09.358Z,0.8
2022-11-11T12:46:09.347Z,0.8
2022-11-11T12:47:09.368Z,0.8
2022-11-11T12:48:09.362Z,0
2022-11-11T12:49:09.366Z,0
2022-11-11T12:50:09.368Z,0
2022-11-11T12:51:09.358Z,0
2022-11-11T12:52:09.364Z,0.6
2022-11-11T12:53:09.361Z,0
2022-11-11T12:54:09.369Z,0.6
2022-11-11T12:55:09.495Z,0.6
2022-11-11T12:56:09.378Z,0.7
2022-11-11T12:57:09.368Z,1.2
2022-11-11T12:58:09.359Z,0.9
2022-11-11T12:59:09.345Z,0.5
2022-11-11T13:00:09.384Z,0.8
2022-11-11T13:01:09.371Z,0.7
2022-11-11T13:02:09.367Z,0.6
2022-11-11T13:03:09.378Z,0
2022-11-11T13:04:09.365Z,0
2022-11-11T13:05:09.399Z,0
2022-11-11T13:06:09.390Z,0
2022-11-11T13:07:09.421Z,0
2022-11-11T13:08:09.387Z,0
2022-11-11T13:09:09.387Z,0
2022-11-11T13:10:09.390Z,0
2022-11-11T13:11:09.499Z,0
2022-11-11T13:12:11.692Z,0
2022-11-11T13:13:09.408Z,0.8
2022-11-11T13:14:09.367Z,0.8
2022-11-11T13:15:09.381Z,0
2022-11-11T13:16:09.385Z,0
2022-11-11T13:17:09.374Z,0.5
2022-11-11T13:18:09.383Z,0
2022-11-11T13:19:12.148Z,1
2022-11-11T13:20:09.381Z,0
2022-11-11T13:21:09.395Z,0.8
2022-11-11T13:22:09.378Z,0.6
2022-11-11T13:23:09.374Z,0.8
2022-11-11T13:24:09.371Z,0.7
2022-11-11T13:25:10.031Z,0.8
2022-11-11T13:26:09.368Z,0.5
2022-11-11T13:27:09.486Z,0.8
2022-11-11T13:28:09.381Z,1.1
2022-11-11T13:29:09.365Z,0.9
2022-11-11T13:30:09.379Z,1.1
2022-11-11T13:31:09.391Z,0.9
2022-11-11T13:32:09.386Z,1
2022-11-11T13:33:09.383Z,1
2022-11-11T13:34:09.382Z,0.9
2022-11-11T13:35:09.408Z,0.7
2022-11-11T13:36:09.376Z,0.7
2022-11-11T13:37:09.410Z,0
2022-11-11T13:38:09.376Z,0
2022-11-11T13:39:09.373Z,0
2022-11-11T13:40:09.420Z,0.5
2022-11-11T13:41:09.380Z,0
2022-11-11T13:42:09.370Z,0
2022-11-11T13:43:09.513Z,0.8
2022-11-11T13:44:09.413Z,0
2022-11-11T13:45:09.402Z,0
2022-11-11T13:46:09.375Z,0
2022-11-11T13:47:09.390Z,0.5
2022-11-11T13:48:09.382Z,0.7
2022-11-11T13:49:09.398Z,0.5
2022-11-11T13:50:09.463Z,0
2022-11-11T13:51:09.423Z,0
2022-11-11T13:52:09.393Z,0
2022-11-11T13:53:09.402Z,0.6
2022-11-11T13:54:09.385Z,0.8
2022-11-11T13:55:09.398Z,0.8
2022-11-11T13:56:09.392Z,1.1
2022-11-11T13:57:09.384Z,1.1
2022-11-11T13:58:09.407Z,0.8
2022-11-11T13:59:09.520Z,0.8
2022-11-11T14:00:09.502Z,0
2022-11-11T14:01:09.428Z,0
2022-11-11T14:02:09.391Z,0
2022-11-11T14:03:09.405Z,0
2022-11-11T14:04:09.406Z,0
2022-11-11T14:05:09.417Z,0
2022-11-11T14:06:09.424Z,0
2022-11-11T14:07:09.467Z,0.5
2022-11-11T14:08:09.403Z,0
2022-11-11T14:09:09.423Z,0
2022-11-11T14:10:09.427Z,0
2022-11-11T14:11:09.394Z,0
2022-11-11T14:12:09.452Z,0
2022-11-11T14:13:09.431Z,0
2022-11-11T14:14:09.401Z,0
2022-11-11T14:15:09.537Z,0
2022-11-11T14:16:09.409Z,0
2022-11-11T14:17:09.395Z,0
2022-11-11T14:18:09.426Z,0
2022-11-11T14:19:09.414Z,0
2022-11-11T14:20:09.416Z,0.5
2022-11-11T14:21:09.422Z,0
2022-11-11T14:22:09.416Z,0
2022-11-11T14:23:09.438Z,0.6
2022-11-11T14:24:09.426Z,0
2022-11-11T14:25:09.443Z,0
2022-11-11T14:26:09.412Z,0
2022-11-11T14:27:09.411Z,0
2022-11-11T14:28:09.414Z,0
2022-11-11T14:29:09.416Z,0.6
2022-11-11T14:30:09.438Z,0
2022-11-11T14:31:09.549Z,0
2022-11-11T14:32:09.412Z,0
2022-11-11T14:33:09.420Z,0